Terminal Aerodrome Forecast
Issued by NWS Des Moines, IA

Home | Current Version | Previous Version | Text Only | Print | Product List | Glossary On
Versions: 1 2 3 4 5 6 7 8 9 10 11 12 13 14 15 16 17 18 19 20 21 22 23 24 25 26 27 28
000
FTUS43 KDMX 251727
TAFDSM
TAF
KDSM 251727Z 2518/2618 17015G25KT P6SM SCT030 BKN040
      TEMPO 2518/2520 BKN028
     FM260000 14006KT P6SM SCT150
     FM261000 VRB04KT 5SM BR SCT200
     FM261200 10005KT P6SM SCT100=

USA.gov is the U.S. government's official web portal to all federal, state and local government web resources and services.